Terminal Aerodrome Forecast
Issued by NWS

Home | Current Version | Previous Version | Text Only | Print | Product List | Glossary On
Versions: 1 2 3 4 5 6 7 8 9 10 11 12 13 14 15 16 17 18 19 20
000
FTUS41 KPBZ 140001 CCA
TAFZZV
TAF COR
KZZV 140001Z 1400/1424 20008KT 5SM -SN OVC028
     FM140200 19007KT 1SM -SN OVC020
     FM140400 21008KT 2SM -SN OVC015
     FM140600 25008KT 3SM -SN OVC020
     FM140800 29008KT P6SM VCSH OVC015
     FM141200 32008KT P6SM BKN025
     FM141500 32008KT P6SM BKN035=

USA.gov is the U.S. government's official web portal to all federal, state and local government web resources and services.